Time;durP1;ratioP1;P1;durP2;ratioP2;P2;SDS_P1;SDS_P2;PMS_P1;PMS_P2;Temp;Humidity;BMP_temperature;BMP_pressure;BME280_temperature;BME280_humidity;BME280_pressure;Samples;Min_cycle;Max_cycle;Signal;HPM_P1;HPM_P2
2023/10/07 00:02:39;;;;;;;6.00;5.13;;;13.40;97.90;;;;;;10453257;28;20230;-77
2023/10/07 00:08:03;;;;;;;11.33;8.70;;;13.40;97.70;;;;;;10438129;28;20218;-78
2023/10/07 00:13:30;;;;;;;7.73;5.80;;;13.30;97.80;;;;;;10456245;28;20781;-77
2023/10/07 00:18:54;;;;;;;13.10;8.70;;;13.30;97.50;;;;;;10451527;28;20225;-76
2023/10/07 00:24:17;;;;;;;9.50;6.73;;;13.30;97.60;;;;;;10445949;28;20222;-78
2023/10/07 00:29:53;;;;;;;6.73;5.90;;;13.30;97.30;;;;;;10446977;28;20687;-77
2023/10/07 00:35:16;;;;;;;7.30;6.10;;;13.20;96.80;;;;;;10521748;22;20238;-81
2023/10/07 00:40:45;;;;;;;14.17;8.60;;;13.20;96.80;;;;;;10527868;28;20318;-81
2023/10/07 00:46:10;;;;;;;11.10;6.43;;;13.10;96.70;;;;;;10533207;28;20300;-80
2023/10/07 00:51:34;;;;;;;7.27;5.53;;;13.10;96.50;;;;;;10527930;28;20253;-81
2023/10/07 00:57:07;;;;;;;11.50;7.17;;;13.00;96.30;;;;;;10539454;28;20218;-81
2023/10/07 01:02:31;;;;;;;7.90;5.33;;;13.00;96.50;;;;;;10535446;28;20240;-81
2023/10/07 01:07:58;;;;;;;6.63;5.23;;;13.00;96.10;;;;;;10533508;28;20219;-79
2023/10/07 01:13:29;;;;;;;6.60;5.33;;;13.00;96.30;;;;;;10529919;28;20220;-78
2023/10/07 01:18:59;;;;;;;6.53;4.73;;;13.00;96.10;;;;;;10533292;28;20318;-79
2023/10/07 01:24:44;;;;;;;7.97;5.97;;;12.90;96.10;;;;;;10531898;28;20298;-78
2023/10/07 01:30:15;;;;;;;7.80;6.10;;;12.90;96.20;;;;;;10528358;28;20280;-78
2023/10/07 01:36:10;;;;;;;10.17;6.90;;;12.90;96.10;;;;;;10525158;28;20224;-78
2023/10/07 01:41:27;;;;;;;7.63;5.60;;;12.90;95.90;;;;;;10530393;28;20758;-79
2023/10/07 01:46:55;;;;;;;7.60;5.77;;;12.80;96.20;;;;;;10525463;28;20671;-79
2023/10/07 01:52:18;;;;;;;7.13;5.20;;;12.90;95.80;;;;;;10537266;28;20730;-79
2023/10/07 01:57:44;;;;;;;6.80;5.50;;;12.80;96.00;;;;;;10542716;28;20227;-78
2023/10/07 02:03:09;;;;;;;8.23;6.67;;;12.80;96.00;;;;;;10527463;28;20281;-77
2023/10/07 02:08:31;;;;;;;6.57;5.60;;;12.70;96.40;;;;;;10526478;28;20211;-77
2023/10/07 02:13:56;;;;;;;7.73;5.33;;;12.70;96.40;;;;;;10531708;28;20689;-78
2023/10/07 02:19:27;;;;;;;7.13;6.00;;;12.70;96.50;;;;;;10531605;28;20251;-79
2023/10/07 02:24:59;;;;;;;6.70;5.20;;;12.70;96.50;;;;;;10527836;28;20650;-78
2023/10/07 02:30:25;;;;;;;8.70;6.00;;;12.70;96.40;;;;;;10521044;28;20197;-80
2023/10/07 02:35:54;;;;;;;8.73;6.33;;;12.60;96.70;;;;;;10532639;28;20224;-79
2023/10/07 02:41:19;;;;;;;7.80;6.10;;;12.60;97.00;;;;;;10528624;28;20220;-78
2023/10/07 02:46:43;;;;;;;7.90;5.97;;;12.60;97.00;;;;;;10525414;28;20250;-79
2023/10/07 02:52:05;;;;;;;8.30;6.00;;;12.60;96.90;;;;;;10537323;28;20220;-79
2023/10/07 02:57:39;;;;;;;7.37;5.90;;;12.60;97.00;;;;;;10540478;28;20231;-78
2023/10/07 03:03:19;;;;;;;6.40;5.57;;;12.50;97.10;;;;;;10526260;28;20236;-78
2023/10/07 03:08:48;;;;;;;8.23;5.90;;;12.60;97.10;;;;;;10539169;28;20299;-78
2023/10/07 03:14:14;;;;;;;7.60;5.80;;;12.60;98.00;;;;;;10538201;28;20219;-79
2023/10/07 03:19:48;;;;;;;7.47;6.03;;;12.50;98.10;;;;;;10531974;28;20220;-78
2023/10/07 03:25:16;;;;;;;6.47;4.83;;;12.40;98.40;;;;;;10533324;28;20220;-79
2023/10/07 03:30:46;;;;;;;6.30;5.70;;;12.40;98.20;;;;;;10541698;28;20588;-79
2023/10/07 03:36:29;;;;;;;6.37;5.57;;;12.40;98.20;;;;;;10528216;28;20230;-78
2023/10/07 03:41:55;;;;;;;22.37;14.30;;;12.50;98.10;;;;;;10539095;28;20219;-78
2023/10/07 03:47:17;;;;;;;21.30;13.87;;;12.50;97.80;;;;;;10535237;28;20710;-79
2023/10/07 03:52:41;;;;;;;5.57;5.00;;;12.40;97.80;;;;;;10532461;28;20220;-79
2023/10/07 03:58:03;;;;;;;21.27;15.20;;;12.50;97.70;;;;;;10538141;28;20201;-79
2023/10/07 04:03:25;;;;;;;41.53;23.97;;;12.40;97.40;;;;;;10525377;28;20709;-79
2023/10/07 04:08:53;;;;;;;29.90;15.63;;;12.40;97.40;;;;;;10535363;28;20196;-79
2023/10/07 04:14:27;;;;;;;8.97;6.17;;;12.40;97.40;;;;;;10535998;28;20303;-78
2023/10/07 04:19:52;;;;;;;6.50;5.07;;;12.40;97.40;;;;;;10536473;28;20278;-79
2023/10/07 04:25:18;;;;;;;13.17;8.10;;;12.30;96.90;;;;;;10536653;28;20262;-79
2023/10/07 04:30:46;;;;;;;8.70;6.53;;;12.30;97.30;;;;;;10530867;28;20553;-78
2023/10/07 04:36:13;;;;;;;6.60;5.07;;;12.30;97.10;;;;;;10535266;28;20224;-78
2023/10/07 04:41:37;;;;;;;6.53;5.40;;;12.30;97.00;;;;;;10527249;28;20362;-79
2023/10/07 04:47:20;;;;;;;8.53;6.60;;;12.20;97.20;;;;;;10517110;28;20274;-78
2023/10/07 04:52:50;;;;;;;7.40;6.23;;;12.20;97.10;;;;;;10542420;28;20204;-80
2023/10/07 04:58:15;;;;;;;6.23;5.33;;;12.20;97.20;;;;;;10523473;28;20202;-79
2023/10/07 05:03:38;;;;;;;7.03;5.03;;;12.20;96.80;;;;;;10531192;28;20273;-79
2023/10/07 05:09:03;;;;;;;6.67;5.53;;;12.20;96.80;;;;;;10527308;28;20253;-79
2023/10/07 05:14:26;;;;;;;7.57;6.00;;;12.10;97.20;;;;;;10533263;28;20247;-78
2023/10/07 05:19:49;;;;;;;6.30;5.50;;;12.10;97.50;;;;;;10534502;28;20232;-79
2023/10/07 05:25:11;;;;;;;6.53;5.00;;;12.10;97.20;;;;;;10533823;28;20221;-79
2023/10/07 05:30:36;;;;;;;6.40;5.00;;;12.00;97.40;;;;;;10529343;28;20199;-78
2023/10/07 05:36:08;;;;;;;6.27;5.20;;;12.00;97.40;;;;;;10525316;28;20702;-79
2023/10/07 05:41:32;;;;;;;7.63;5.77;;;12.00;97.60;;;;;;10531203;28;20286;-78
2023/10/07 05:46:55;;;;;;;7.10;5.10;;;12.00;97.50;;;;;;10531743;28;20228;-81
2023/10/07 05:52:18;;;;;;;7.00;5.57;;;12.10;97.30;;;;;;10532700;28;20239;-78
2023/10/07 05:57:40;;;;;;;6.90;5.50;;;12.00;97.30;;;;;;10529999;28;20196;-78
2023/10/07 06:03:06;;;;;;;5.77;4.80;;;12.00;97.80;;;;;;10528461;28;20231;-79
2023/10/07 06:08:29;;;;;;;6.80;5.10;;;12.00;97.60;;;;;;10530684;28;20291;-79
2023/10/07 06:13:51;;;;;;;7.10;4.53;;;12.00;97.80;;;;;;10528095;28;20860;-78
2023/10/07 06:19:17;;;;;;;7.17;4.80;;;12.00;97.90;;;;;;10533086;28;20234;-79
2023/10/07 06:24:41;;;;;;;7.33;5.60;;;12.10;98.00;;;;;;10523581;28;20213;-79
2023/10/07 06:30:04;;;;;;;8.63;5.40;;;12.20;98.00;;;;;;10539540;28;20192;-80
2023/10/07 06:35:28;;;;;;;9.10;7.27;;;12.30;97.80;;;;;;10540865;28;20224;-79
2023/10/07 06:40:53;;;;;;;9.03;6.00;;;12.40;98.00;;;;;;10535003;28;20252;-81
2023/10/07 06:46:20;;;;;;;8.67;5.37;;;12.40;98.10;;;;;;10537396;28;20220;-79
2023/10/07 06:51:44;;;;;;;6.87;5.23;;;12.50;98.40;;;;;;10537760;28;20666;-80
2023/10/07 06:57:10;;;;;;;7.90;5.80;;;12.60;98.50;;;;;;10540159;28;20208;-79
2023/10/07 07:02:35;;;;;;;8.20;5.60;;;12.80;98.60;;;;;;10529320;28;20235;-79
2023/10/07 07:08:03;;;;;;;6.47;4.97;;;13.00;98.30;;;;;;10543358;28;20201;-80
2023/10/07 07:13:27;;;;;;;6.80;5.20;;;13.30;98.00;;;;;;10542149;28;20227;-79
2023/10/07 07:18:50;;;;;;;7.33;4.80;;;13.60;98.00;;;;;;10539580;28;20669;-78
2023/10/07 07:24:14;;;;;;;8.97;5.80;;;13.80;97.60;;;;;;10528377;28;21065;-77
2023/10/07 07:29:37;;;;;;;8.30;5.03;;;14.00;97.00;;;;;;10535345;28;20745;-77
2023/10/07 07:35:02;;;;;;;6.73;5.60;;;14.30;97.30;;;;;;10530820;28;20228;-80
2023/10/07 07:40:38;;;;;;;5.50;4.13;;;14.30;97.50;;;;;;10539948;28;20204;-79
2023/10/07 07:51:44;;;;;;;9.30;5.23;;;14.40;98.50;;;;;;10533108;28;20782;-79
2023/10/07 07:57:08;;;;;;;6.70;4.53;;;14.50;98.70;;;;;;10540170;28;20197;-80
2023/10/07 08:02:35;;;;;;;6.57;5.50;;;14.50;98.40;;;;;;10538737;28;20299;-79
2023/10/07 08:07:58;;;;;;;8.87;5.93;;;14.60;98.80;;;;;;10541558;28;20207;-78
2023/10/07 08:13:23;;;;;;;9.17;5.80;;;14.80;99.00;;;;;;10544498;28;20205;-80
2023/10/07 08:18:46;;;;;;;6.97;4.67;;;15.20;99.00;;;;;;10539635;28;20626;-81
2023/10/07 08:24:09;;;;;;;10.63;6.00;;;15.60;98.70;;;;;;10532196;28;20220;-80
2023/10/07 08:29:33;;;;;;;9.70;5.43;;;16.00;97.60;;;;;;10539686;28;20292;-80
2023/10/07 08:34:59;;;;;;;8.10;4.90;;;16.30;97.40;;;;;;10536736;28;20301;-80
2023/10/07 08:40:27;;;;;;;5.70;4.70;;;16.50;96.90;;;;;;10534697;28;20224;-81
2023/10/07 08:45:50;;;;;;;8.00;5.40;;;16.60;97.40;;;;;;10528088;28;20224;-80
2023/10/07 08:51:17;;;;;;;7.27;5.20;;;16.90;97.20;;;;;;10532827;28;20286;-81
2023/10/07 08:56:40;;;;;;;7.63;5.57;;;17.20;97.20;;;;;;10537946;28;20258;-82
2023/10/07 09:02:04;;;;;;;11.30;5.50;;;17.50;97.10;;;;;;10518607;28;20315;-80
2023/10/07 09:07:31;;;;;;;7.50;5.47;;;17.70;96.80;;;;;;10535644;28;20224;-81
2023/10/07 09:12:57;;;;;;;11.63;6.00;;;17.90;96.40;;;;;;10527542;28;20692;-81
2023/10/07 09:18:28;;;;;;;8.83;5.50;;;18.10;96.60;;;;;;10541519;28;20211;-82
2023/10/07 09:23:59;;;;;;;7.10;6.23;;;18.10;95.70;;;;;;10540252;28;20235;-82
2023/10/07 09:29:25;;;;;;;7.60;5.33;;;18.20;96.30;;;;;;10539779;28;20296;-82
2023/10/07 09:34:49;;;;;;;6.17;5.53;;;18.40;96.20;;;;;;10539895;28;20227;-81
2023/10/07 09:41:06;;;;;;;11.77;6.00;;;18.60;96.10;;;;;;10539176;28;20219;-82
2023/10/07 09:46:03;;;;;;;5.93;4.90;;;18.70;95.90;;;;;;10539134;28;20228;-82
2023/10/07 09:51:29;;;;;;;6.87;5.13;;;18.70;95.50;;;;;;10538194;28;20196;-82
2023/10/07 09:57:07;;;;;;;6.63;4.93;;;18.80;95.50;;;;;;10540268;28;20211;-82
2023/10/07 10:03:03;;;;;;;8.80;5.70;;;18.70;95.70;;;;;;10537363;28;20227;-81
2023/10/07 10:08:57;;;;;;;7.20;5.17;;;18.70;95.60;;;;;;10541977;28;20203;-82
2023/10/07 10:14:29;;;;;;;5.07;4.40;;;18.80;95.90;;;;;;10535422;28;20317;-81
2023/10/07 10:20:09;;;;;;;6.90;5.20;;;18.90;96.10;;;;;;10538605;28;20206;-82
2023/10/07 10:25:36;;;;;;;5.37;4.33;;;19.10;95.40;;;;;;10534555;28;20329;-83
2023/10/07 10:30:58;;;;;;;6.83;4.33;;;19.20;94.40;;;;;;10537360;28;20208;-80
2023/10/07 10:36:22;;;;;;;4.73;3.60;;;19.30;94.40;;;;;;10537410;28;20216;-82
2023/10/07 10:41:46;;;;;;;4.73;3.40;;;19.30;92.80;;;;;;10535159;28;20291;-81
2023/10/07 10:47:09;;;;;;;3.73;3.13;;;19.30;93.50;;;;;;10536836;28;20211;-81
2023/10/07 10:52:32;;;;;;;4.70;4.20;;;19.30;93.40;;;;;;10530783;28;20211;-81
2023/10/07 10:57:56;;;;;;;4.23;2.70;;;19.40;93.20;;;;;;10536013;28;20207;-80
2023/10/07 11:03:21;;;;;;;4.50;2.90;;;19.60;93.10;;;;;;10534611;28;20228;-82
2023/10/07 11:08:43;;;;;;;6.33;3.33;;;19.70;90.70;;;;;;10527159;28;20200;-82
2023/10/07 11:14:13;;;;;;;4.03;3.27;;;19.70;91.90;;;;;;10541735;28;20227;-81
2023/10/07 11:19:41;;;;;;;4.90;2.93;;;19.80;91.10;;;;;;10537078;28;20208;-82
2023/10/07 11:25:06;;;;;;;4.00;3.20;;;19.90;91.60;;;;;;10538044;28;20216;-81
2023/10/07 11:30:30;;;;;;;3.20;2.73;;;19.90;92.60;;;;;;10542482;28;20381;-82
2023/10/07 11:35:59;;;;;;;3.90;2.93;;;20.00;92.30;;;;;;10533943;28;20224;-82
2023/10/07 11:41:22;;;;;;;3.30;2.90;;;19.90;92.40;;;;;;10542911;28;20716;-82
2023/10/07 11:46:45;;;;;;;4.70;3.00;;;19.80;91.90;;;;;;10543940;28;20196;-82
2023/10/07 11:52:07;;;;;;;5.77;3.17;;;19.70;91.80;;;;;;10542995;28;20212;-81
2023/10/07 11:57:30;;;;;;;5.70;3.30;;;19.60;92.60;;;;;;10544698;28;20737;-82
2023/10/07 12:02:57;;;;;;;4.63;3.47;;;19.60;93.10;;;;;;10548861;28;20236;-81
2023/10/07 12:08:19;;;;;;;3.43;3.10;;;19.70;91.80;;;;;;10545812;28;20197;-82
2023/10/07 12:13:41;;;;;;;4.13;2.83;;;19.70;92.90;;;;;;10541694;28;20216;-82
2023/10/07 12:19:06;;;;;;;3.50;3.20;;;19.70;93.10;;;;;;10543223;28;20196;-80
2023/10/07 12:24:28;;;;;;;4.10;3.70;;;19.70;92.20;;;;;;10533000;28;20299;-82
2023/10/07 12:29:50;;;;;;;5.43;3.23;;;19.80;91.90;;;;;;10543448;28;20665;-82
2023/10/07 12:35:14;;;;;;;3.03;2.73;;;19.80;92.40;;;;;;10539083;28;20230;-82
2023/10/07 12:40:40;;;;;;;3.23;2.70;;;19.80;92.30;;;;;;10535929;28;20577;-81
2023/10/07 12:46:02;;;;;;;6.73;3.00;;;19.80;92.90;;;;;;10501047;28;20367;-82
2023/10/07 12:51:25;;;;;;;4.23;3.43;;;19.80;91.90;;;;;;10541703;28;20608;-81
2023/10/07 12:56:48;;;;;;;4.77;3.40;;;19.80;93.30;;;;;;10541711;28;20658;-81
2023/10/07 13:02:17;;;;;;;3.47;2.87;;;19.80;92.90;;;;;;10541314;28;20235;-82
2023/10/07 13:07:42;;;;;;;4.57;3.47;;;19.80;93.80;;;;;;10541271;28;20608;-82
2023/10/07 13:13:04;;;;;;;5.90;3.30;;;19.80;92.60;;;;;;10542225;28;20225;-82
2023/10/07 13:18:32;;;;;;;3.70;2.93;;;19.80;93.60;;;;;;10541536;28;20242;-82
2023/10/07 13:23:56;;;;;;;6.43;4.17;;;19.80;93.50;;;;;;10541193;28;20291;-82
2023/10/07 13:29:19;;;;;;;4.27;3.60;;;19.70;94.20;;;;;;10540230;28;20206;-82
2023/10/07 13:34:42;;;;;;;7.70;4.70;;;19.50;94.50;;;;;;10540384;28;20236;-81
2023/10/07 13:40:07;;;;;;;4.20;3.17;;;19.30;94.90;;;;;;10537195;28;20203;-82
2023/10/07 13:45:30;;;;;;;6.00;4.13;;;19.20;95.30;;;;;;10536730;28;20709;-82
2023/10/07 13:50:52;;;;;;;3.97;3.10;;;19.10;95.40;;;;;;10538756;28;20211;-82
2023/10/07 13:56:23;;;;;;;3.90;3.47;;;19.00;96.00;;;;;;10538006;28;20217;-82
2023/10/07 14:01:46;;;;;;;9.60;3.50;;;18.90;95.30;;;;;;10547801;28;20212;-81
2023/10/07 14:07:09;;;;;;;5.00;3.60;;;18.80;95.90;;;;;;10536938;28;20200;-80
2023/10/07 14:12:32;;;;;;;5.47;3.70;;;18.80;96.70;;;;;;10515426;28;20231;-82
2023/10/07 14:17:54;;;;;;;4.60;3.30;;;18.80;96.50;;;;;;10534767;28;20201;-82
2023/10/07 14:23:17;;;;;;;3.80;3.23;;;18.80;96.70;;;;;;10512447;28;20220;-80
2023/10/07 14:28:44;;;;;;;4.80;3.40;;;18.90;97.10;;;;;;10535812;28;20554;-81
2023/10/07 14:34:07;;;;;;;5.60;3.80;;;18.90;97.30;;;;;;10538490;28;20259;-82
2023/10/07 14:39:30;;;;;;;3.83;3.23;;;18.90;97.90;;;;;;10535733;28;20228;-82
2023/10/07 14:44:54;;;;;;;7.60;3.80;;;18.90;97.70;;;;;;10507989;28;20235;-82
2023/10/07 14:50:18;;;;;;;5.57;4.23;;;18.90;97.70;;;;;;10543754;28;20282;-82
2023/10/07 14:55:44;;;;;;;5.13;4.63;;;18.80;97.90;;;;;;10548014;28;20559;-82
2023/10/07 15:01:07;;;;;;;7.07;4.40;;;18.80;98.40;;;;;;10541772;28;20207;-82
2023/10/07 15:06:32;;;;;;;4.43;3.87;;;18.80;98.90;;;;;;10544950;28;20279;-82
2023/10/07 15:11:56;;;;;;;6.43;4.77;;;18.70;99.00;;;;;;10546240;28;20208;-82
2023/10/07 15:17:19;;;;;;;6.93;4.90;;;18.70;99.20;;;;;;10546022;28;20197;-82
2023/10/07 15:22:42;;;;;;;6.50;4.87;;;18.70;99.00;;;;;;10545133;28;20247;-82
2023/10/07 15:28:05;;;;;;;4.80;3.80;;;18.70;98.70;;;;;;10543568;28;20275;-82
2023/10/07 15:33:28;;;;;;;4.83;3.77;;;18.70;98.50;;;;;;10543764;28;20228;-82
2023/10/07 15:38:51;;;;;;;4.13;3.33;;;18.80;98.00;;;;;;10501807;28;20205;-81
2023/10/07 15:44:13;;;;;;;4.80;4.27;;;18.80;98.00;;;;;;10542833;28;20220;-82
2023/10/07 15:49:37;;;;;;;7.70;4.40;;;18.80;97.70;;;;;;10545762;28;20196;-81
2023/10/07 15:55:01;;;;;;;5.10;3.73;;;18.90;97.80;;;;;;10520312;28;20596;-81
2023/10/07 16:00:24;;;;;;;6.37;4.23;;;18.80;98.00;;;;;;10537477;28;20204;-81
2023/10/07 16:05:47;;;;;;;5.57;4.00;;;18.70;97.60;;;;;;10537323;28;20212;-82
2023/10/07 16:11:17;;;;;;;5.90;3.40;;;18.70;97.50;;;;;;10542703;28;20298;-81
2023/10/07 16:16:39;;;;;;;4.00;2.60;;;18.60;97.70;;;;;;10539736;28;20218;-82
2023/10/07 16:22:04;;;;;;;4.30;3.30;;;18.50;97.70;;;;;;10546655;28;20227;-82
2023/10/07 16:27:29;;;;;;;4.90;4.30;;;18.50;97.70;;;;;;10545053;28;20245;-81
2023/10/07 16:32:51;;;;;;;5.23;3.60;;;18.30;97.80;;;;;;10545229;28;20268;-81
2023/10/07 16:38:15;;;;;;;6.30;3.73;;;18.20;97.70;;;;;;10542113;28;20192;-82
2023/10/07 16:43:37;;;;;;;4.20;3.67;;;18.20;97.90;;;;;;10540805;28;20220;-79
2023/10/07 16:49:00;;;;;;;4.13;3.73;;;18.10;97.80;;;;;;10540659;28;20201;-80
2023/10/07 16:54:23;;;;;;;5.03;3.57;;;18.00;98.10;;;;;;10539114;28;20224;-81
2023/10/07 16:59:45;;;;;;;4.33;3.67;;;17.90;98.10;;;;;;10538728;28;20204;-80
2023/10/07 17:05:08;;;;;;;4.83;3.67;;;17.80;98.00;;;;;;10497302;28;20601;-81
2023/10/07 17:10:38;;;;;;;4.40;3.60;;;17.70;97.40;;;;;;10499838;28;20196;-79
2023/10/07 17:16:00;;;;;;;5.03;4.20;;;17.60;97.60;;;;;;10536916;28;20224;-81
2023/10/07 17:21:25;;;;;;;5.00;4.37;;;17.60;97.10;;;;;;10537640;28;20197;-79
2023/10/07 17:26:48;;;;;;;4.00;3.57;;;17.50;97.10;;;;;;10538437;28;20200;-81
2023/10/07 17:32:10;;;;;;;4.67;3.77;;;17.40;97.00;;;;;;10535970;28;20224;-80
2023/10/07 17:37:33;;;;;;;5.60;4.53;;;17.40;97.20;;;;;;10539131;28;20203;-79
2023/10/07 17:42:57;;;;;;;11.70;7.70;;;17.40;97.30;;;;;;10538313;28;20226;-80
2023/10/07 17:48:19;;;;;;;17.23;9.93;;;17.30;97.10;;;;;;10538836;28;20256;-80
2023/10/07 17:53:43;;;;;;;12.90;7.23;;;17.30;97.10;;;;;;10542637;28;20212;-79
2023/10/07 17:59:07;;;;;;;8.77;5.67;;;17.20;97.00;;;;;;10534935;28;20280;-80
2023/10/07 18:04:29;;;;;;;9.13;5.60;;;17.20;97.10;;;;;;10521513;28;20248;-79
2023/10/07 18:09:51;;;;;;;6.40;4.90;;;17.10;97.10;;;;;;10527275;28;20570;-81
2023/10/07 18:15:16;;;;;;;6.63;4.40;;;17.10;96.80;;;;;;10536439;28;20208;-81
2023/10/07 18:20:38;;;;;;;12.33;4.63;;;17.10;96.90;;;;;;10542293;28;20228;-80
2023/10/07 18:26:00;;;;;;;5.90;4.27;;;17.10;96.20;;;;;;10547307;28;20357;-80
2023/10/07 18:31:24;;;;;;;6.30;5.03;;;17.10;96.30;;;;;;10549244;28;20200;-79
2023/10/07 18:36:46;;;;;;;5.40;4.77;;;17.10;96.30;;;;;;10531928;28;20204;-80
2023/10/07 18:42:08;;;;;;;6.50;5.20;;;17.10;96.40;;;;;;10523738;28;20227;-80
2023/10/07 18:47:33;;;;;;;6.43;4.80;;;17.10;96.30;;;;;;10548223;28;20196;-80
2023/10/07 18:52:55;;;;;;;6.30;5.20;;;17.10;96.70;;;;;;10551236;28;20222;-81
2023/10/07 18:58:17;;;;;;;6.87;5.97;;;17.10;96.40;;;;;;10544280;28;20204;-80
2023/10/07 19:03:41;;;;;;;10.97;7.67;;;17.10;96.20;;;;;;10551134;28;20227;-80
2023/10/07 19:09:03;;;;;;;14.20;7.10;;;17.10;95.90;;;;;;10553048;28;20212;-79
2023/10/07 19:14:26;;;;;;;10.13;7.60;;;17.10;95.60;;;;;;10547399;28;20224;-79
2023/10/07 19:19:49;;;;;;;14.60;8.50;;;17.10;96.00;;;;;;10549747;28;20212;-79
2023/10/07 19:25:13;;;;;;;6.97;4.93;;;17.20;95.00;;;;;;10545832;28;20232;-79
2023/10/07 19:30:39;;;;;;;5.03;4.03;;;17.20;94.20;;;;;;10548103;28;20200;-78
2023/10/07 19:36:05;;;;;;;4.27;3.87;;;17.20;94.70;;;;;;10539141;28;20285;-78
2023/10/07 19:41:28;;;;;;;4.77;3.97;;;17.20;93.90;;;;;;10541786;28;20283;-79
2023/10/07 19:46:51;;;;;;;27.63;13.97;;;17.30;93.50;;;;;;10549421;28;20204;-77
2023/10/07 19:52:14;;;;;;;16.20;9.40;;;17.30;93.70;;;;;;10545827;28;20745;-79
2023/10/07 19:57:37;;;;;;;15.67;9.60;;;17.30;93.80;;;;;;10544952;28;20203;-80
2023/10/07 20:02:59;;;;;;;8.37;5.20;;;17.30;94.30;;;;;;10541047;28;20224;-79
2023/10/07 20:08:27;;;;;;;6.53;4.47;;;17.30;93.70;;;;;;10496069;28;20831;-78
2023/10/07 20:13:49;;;;;;;19.50;10.30;;;17.40;92.80;;;;;;10523492;28;20725;-79
2023/10/07 20:19:12;;;;;;;15.30;8.83;;;17.40;93.00;;;;;;10523025;28;20192;-80
2023/10/07 20:24:35;;;;;;;21.07;9.07;;;17.40;93.10;;;;;;10519612;28;20226;-78
2023/10/07 20:29:57;;;;;;;8.17;4.87;;;17.50;92.50;;;;;;10527934;28;20200;-80
2023/10/07 20:35:22;;;;;;;5.63;4.13;;;17.50;92.20;;;;;;10533083;28;20232;-78
2023/10/07 20:40:53;;;;;;;23.37;10.67;;;17.60;92.70;;;;;;10514353;28;20197;-78
2023/10/07 20:46:15;;;;;;;7.83;4.23;;;17.60;92.50;;;;;;10524072;28;20509;-80
2023/10/07 20:51:38;;;;;;;4.73;4.10;;;17.60;91.60;;;;;;10544721;28;20212;-80
2023/10/07 20:57:01;;;;;;;8.00;5.07;;;17.60;91.60;;;;;;10545768;28;20211;-80
2023/10/07 21:02:23;;;;;;;5.97;4.60;;;17.60;91.70;;;;;;10542541;28;20228;-81
2023/10/07 21:07:46;;;;;;;6.10;4.27;;;17.60;90.90;;;;;;10533166;28;20211;-81
2023/10/07 21:13:10;;;;;;;4.70;3.60;;;17.60;91.10;;;;;;10532479;28;20300;-79
2023/10/07 21:18:32;;;;;;;5.30;4.00;;;17.60;91.10;;;;;;10534649;28;20354;-81
2023/10/07 21:23:54;;;;;;;4.40;3.70;;;17.60;91.10;;;;;;10535979;28;20235;-81
2023/10/07 21:29:19;;;;;;;5.13;3.23;;;17.50;89.50;;;;;;10539056;28;20189;-81
2023/10/07 21:34:41;;;;;;;4.47;3.20;;;17.50;90.00;;;;;;10535910;28;20227;-81
2023/10/07 21:40:05;;;;;;;3.50;3.20;;;17.40;90.10;;;;;;10537173;28;20211;-81
2023/10/07 21:45:29;;;;;;;4.77;3.33;;;17.40;90.00;;;;;;10549328;28;20632;-81
2023/10/07 21:50:52;;;;;;;3.97;3.30;;;17.40;89.40;;;;;;10534674;28;20203;-81
2023/10/07 21:56:14;;;;;;;5.40;3.93;;;17.40;88.80;;;;;;10531558;28;20212;-80
2023/10/07 22:01:40;;;;;;;5.73;3.47;;;17.40;88.90;;;;;;10529159;28;20542;-80
2023/10/07 22:07:02;;;;;;;4.30;3.40;;;17.40;89.60;;;;;;10530789;28;20240;-80
2023/10/07 22:12:24;;;;;;;4.37;3.43;;;17.40;89.90;;;;;;10535809;28;20216;-79
2023/10/07 22:17:49;;;;;;;4.13;3.33;;;17.40;90.10;;;;;;10531429;28;20208;-80
2023/10/07 22:23:11;;;;;;;3.60;3.13;;;17.40;90.60;;;;;;10528785;28;20220;-80
2023/10/07 22:28:33;;;;;;;4.63;3.60;;;17.30;90.70;;;;;;10540940;28;20685;-79
2023/10/07 22:33:58;;;;;;;5.50;4.33;;;17.30;91.10;;;;;;10529694;28;20228;-80
2023/10/07 22:39:30;;;;;;;6.00;3.93;;;17.20;91.30;;;;;;10533942;28;20909;-80
2023/10/07 22:44:56;;;;;;;5.67;4.20;;;17.20;91.90;;;;;;10534909;28;20231;-80
2023/10/07 22:50:19;;;;;;;6.53;3.73;;;17.10;91.70;;;;;;10542007;28;20208;-81
2023/10/07 22:55:49;;;;;;;5.50;3.93;;;17.00;92.00;;;;;;10543977;28;20221;-80
2023/10/07 23:01:18;;;;;;;5.63;4.00;;;17.00;91.40;;;;;;10512777;28;20193;-80
2023/10/07 23:06:43;;;;;;;4.17;3.73;;;16.90;90.90;;;;;;10545337;28;20292;-81
2023/10/07 23:12:14;;;;;;;4.97;3.90;;;16.80;91.00;;;;;;10549381;28;20316;-80
2023/10/07 23:17:38;;;;;;;4.70;3.50;;;16.70;91.30;;;;;;10549320;28;20193;-80
2023/10/07 23:23:11;;;;;;;3.50;3.10;;;16.60;91.30;;;;;;10551505;28;20676;-80
2023/10/07 23:28:37;;;;;;;3.60;3.30;;;16.50;91.60;;;;;;10549640;28;20196;-80
2023/10/07 23:34:10;;;;;;;3.87;3.30;;;16.50;91.60;;;;;;10541699;28;20236;-81
2023/10/07 23:39:37;;;;;;;4.23;3.23;;;16.40;91.20;;;;;;10547239;28;20279;-79
2023/10/07 23:45:06;;;;;;;3.90;3.30;;;16.40;90.90;;;;;;10551352;28;20243;-80
2023/10/07 23:50:39;;;;;;;4.93;3.83;;;16.30;91.30;;;;;;10540668;28;20189;-79
2023/10/07 23:56:07;;;;;;;4.37;3.80;;;16.20;91.30;;;;;;10542733;27;20215;-80
